Time;durP1;ratioP1;P1;durP2;ratioP2;P2;SDS_P1;SDS_P2;PMS_P1;PMS_P2;Temp;Humidity;BMP_temperature;BMP_pressure;BME280_temperature;BME280_humidity;BME280_pressure;Samples;Min_cycle;Max_cycle;Signal;HPM_P1;HPM_P2
2022/04/22 00:02:22;;;;;;;;;13.75;12.00;;;;;13.12;74.14;100887.13;146609;570;45042;-72
2022/04/22 00:05:13;;;;;;;;;15.50;15.50;;;;;13.07;73.12;100893.84;146613;675;45021;-73
2022/04/22 00:08:07;;;;;;;;;41.25;34.75;;;;;13.05;74.56;100885.09;146606;578;46016;-74
2022/04/22 00:14:09;;;;;;;;;13.75;13.00;;;;;13.12;71.61;100888.84;146603;608;46016;-74
2022/04/22 00:17:01;;;;;;;;;12.25;12.25;;;;;13.19;71.16;100883.06;146607;608;46020;-76
2022/04/22 00:19:53;;;;;;;;;24.00;22.00;;;;;13.25;72.08;100917.22;146607;569;46016;-79
2022/04/22 00:22:47;;;;;;;;;20.25;17.75;;;;;13.30;71.71;100907.91;146607;603;46020;-74
2022/04/22 00:25:39;;;;;;;;;18.50;17.00;;;;;13.35;71.27;100924.59;146603;601;47013;-72
2022/04/22 00:28:31;;;;;;;;;20.50;17.75;;;;;13.40;70.91;100941.34;146607;613;46020;-75
2022/04/22 00:31:23;;;;;;;;;21.25;19.00;;;;;13.47;70.97;100947.69;146604;612;46016;-74
2022/04/22 00:34:15;;;;;;;;;16.00;14.50;;;;;13.50;71.60;100926.09;146612;625;45021;-74
2022/04/22 00:37:08;;;;;;;;;16.00;15.00;;;;;13.50;71.75;100937.41;146607;610;46012;-75
2022/04/22 00:40:01;;;;;;;;;16.50;14.25;;;;;13.48;71.73;100927.75;146608;566;46010;-92
2022/04/22 00:42:53;;;;;;;;;14.75;13.50;;;;;13.46;70.83;100927.69;146607;569;46016;-92
2022/04/22 00:45:44;;;;;;;;;44.50;37.00;;;;;13.49;73.64;100924.28;146611;493;46020;0
2022/04/22 00:51:16;;;;;;;;;18.50;17.25;;;;;13.51;71.06;100905.31;146610;570;45020;-87
2022/04/22 00:54:09;;;;;;;;;25.75;23.00;;;;;11.40;70.68;100531.97;146607;586;46017;-87
2022/04/22 00:57:01;;;;;;;;;43.50;36.25;;;;;13.62;73.18;100909.25;146606;601;46020;-80
2022/04/22 00:59:55;;;;;;;;;15.25;15.25;;;;;13.60;73.73;100897.87;146605;589;46033;-86
2022/04/22 01:02:47;;;;;;;;;15.75;15.25;;;;;13.57;73.36;100891.66;146611;569;45919;-84
2022/04/22 01:12:01;;;;;;;;;22.00;18.75;;;;;13.71;71.12;100927.00;146605;606;46014;-82
2022/04/22 01:14:53;;;;;;;;;20.25;16.00;;;;;13.76;71.23;100925.47;146609;605;46010;-88
2022/04/22 01:17:45;;;;;;;;;15.75;14.50;;;;;12.99;71.61;100767.69;146607;659;47013;-90
2022/04/22 01:20:37;;;;;;;;;15.25;13.50;;;;;13.78;71.70;100902.09;146608;619;46020;-82
2022/04/22 01:23:30;;;;;;;;;16.25;15.25;;;;;13.76;71.81;100906.34;146606;589;46012;-80
2022/04/22 01:26:22;;;;;;;;;17.00;14.75;;;;;13.71;71.45;100898.34;146609;619;46010;-80
2022/04/22 01:29:15;;;;;;;;;15.50;12.75;;;;;13.71;71.11;100913.97;146607;678;46012;-88
2022/04/22 01:32:07;;;;;;;;;13.25;13.00;;;;;13.72;72.23;100887.06;146612;564;46010;-92
2022/04/22 01:35:01;;;;;;;;;17.50;14.00;;;;;13.73;72.17;100925.34;146611;593;46012;-79
2022/04/22 01:37:53;;;;;;;;;14.75;14.50;;;;;13.74;72.95;100898.47;146607;590;46020;-79
2022/04/22 01:40:45;;;;;;;;;14.75;12.75;;;;;13.68;74.61;100894.72;146605;606;46016;-84
2022/04/22 01:43:37;;;;;;;;;17.50;15.25;;;;;13.61;72.24;100910.09;146609;587;46010;-77
2022/04/22 01:46:30;;;;;;;;;14.75;11.50;;;;;13.61;72.08;100907.50;146606;586;46012;-77
2022/04/22 01:49:22;;;;;;;;;12.75;11.50;;;;;13.64;72.02;100891.06;146608;615;46020;-77
2022/04/22 01:52:14;;;;;;;;;13.00;13.00;;;;;13.67;72.20;100883.38;146607;624;46012;-78
2022/04/22 01:55:07;;;;;;;;;14.75;13.50;;;;;13.66;73.04;100873.81;146609;565;46021;-78
2022/04/22 01:57:59;;;;;;;;;20.25;14.75;;;;;13.61;72.61;100859.69;146602;641;46022;-77
2022/04/22 02:00:52;;;;;;;;;15.25;13.00;;;;;13.60;71.68;100857.91;146607;599;46021;-79
2022/04/22 02:03:44;;;;;;;;;15.50;13.75;;;;;13.61;72.69;100837.16;146605;653;46034;-77
2022/04/22 02:06:36;;;;;;;;;17.25;15.75;;;;;13.56;75.34;100815.22;146608;582;47010;-76
2022/04/22 02:09:28;;;;;;;;;11.25;10.50;;;;;13.45;76.30;100792.16;146613;577;46014;-77
2022/04/22 02:12:20;;;;;;;;;12.00;10.00;;;;;13.38;74.34;100807.53;146607;681;46020;-77
2022/04/22 02:15:15;;;;;;;;;13.50;10.00;;;;;13.36;74.01;100845.66;146608;609;46017;-74
2022/04/22 02:18:07;;;;;;;;;16.25;11.50;;;;;13.38;74.51;100854.41;146611;563;46018;-74
2022/04/22 02:20:58;;;;;;;;;12.75;10.25;;;;;13.43;73.45;100856.31;146610;583;46016;-74
2022/04/22 02:23:50;;;;;;;;;12.50;12.00;;;;;13.48;73.84;100849.59;146612;602;46010;-74
2022/04/22 02:29:54;;;;;;;;;11.75;11.25;;;;;13.60;73.37;100850.97;146628;576;45011;-76
2022/04/22 02:32:47;;;;;;;;;12.50;12.50;;;;;13.61;73.23;100851.88;146630;573;45012;-76
2022/04/22 02:35:39;;;;;;;;;12.50;12.50;;;;;13.56;73.08;100838.66;146630;569;45020;-77
2022/04/22 02:38:34;;;;;;;;;14.00;13.00;;;;;13.54;73.57;100834.22;146630;600;45016;-77
2022/04/22 02:47:47;;;;;;;;;13.25;13.00;;;;;13.47;73.50;100808.75;146628;605;45021;-83
2022/04/22 02:50:39;;;;;;;;;12.75;11.00;;;;;13.48;74.23;100814.00;146633;596;45012;-83
2022/04/22 02:53:31;;;;;;;;;13.75;12.75;;;;;13.48;77.71;100795.78;146632;729;45010;-80
2022/04/22 02:56:25;;;;;;;;;13.50;13.00;;;;;13.52;75.19;100783.75;146633;597;45012;-79
2022/04/22 02:59:16;;;;;;;;;9.25;8.25;;;;;13.50;79.17;100770.69;146635;568;45010;-78
2022/04/22 03:02:10;;;;;;;;;12.50;11.25;;;;;13.56;74.98;100791.78;146628;604;45013;-76
2022/04/22 03:05:02;;;;;;;;;10.00;10.00;;;;;13.62;73.84;100809.38;146627;564;45916;-75
2022/04/22 03:07:54;;;;;;;;;16.00;15.25;;;;;13.70;75.75;100799.25;146628;617;45016;-75
2022/04/22 03:10:48;;;;;;;;;18.75;15.75;;;;;13.69;73.92;100769.69;146630;582;45010;-75
2022/04/22 03:13:40;;;;;;;;;18.50;14.75;;;;;13.78;74.79;100772.66;146630;573;45012;-77
2022/04/22 03:16:32;;;;;;;;;15.75;14.75;;;;;13.79;73.69;100783.97;146628;571;46021;-78
2022/04/22 03:19:24;;;;;;;;;17.50;17.00;;;;;13.80;72.95;100811.78;146630;701;45010;-77
2022/04/22 03:22:16;;;;;;;;;16.75;16.25;;;;;13.81;74.24;100830.13;146630;617;45011;-73
2022/04/22 03:25:09;;;;;;;;;17.00;17.00;;;;;13.82;73.23;100836.22;146618;636;46016;-72
2022/04/22 03:28:01;;;;;;;;;16.50;15.50;;;;;13.85;73.69;100836.34;146607;619;46020;-74
2022/04/22 03:30:53;;;;;;;;;19.00;18.75;;;;;13.88;73.11;100864.25;146604;576;47012;-77
2022/04/22 03:33:45;;;;;;;;;17.50;15.00;;;;;13.92;72.54;100894.81;146605;592;46020;-76
2022/04/22 03:36:37;;;;;;;;;20.50;18.75;;;;;13.94;72.54;100888.84;146605;574;46016;-76
2022/04/22 03:39:30;;;;;;;;;19.00;17.25;;;;;13.96;72.19;100891.53;146608;612;46021;-76
2022/04/22 03:42:22;;;;;;;;;19.75;18.75;;;;;13.97;71.90;100901.13;146603;604;46016;-76
2022/04/22 03:45:14;;;;;;;;;22.50;20.25;;;;;14.00;71.89;100893.41;146608;625;46021;-72
2022/04/22 03:48:10;;;;;;;;;24.50;21.50;;;;;14.02;71.96;100886.56;146606;580;46917;-72
2022/04/22 03:51:02;;;;;;;;;21.75;21.25;;;;;14.01;71.72;100884.75;146608;592;46020;-72
2022/04/22 03:53:54;;;;;;;;;23.25;20.25;;;;;14.01;71.88;100895.19;146606;588;46016;-71
2022/04/22 03:59:56;;;;;;;;;25.75;21.50;;;;;14.05;73.73;100887.56;146603;578;46014;-71
2022/04/22 04:02:49;;;;;;;;;20.75;20.50;;;;;14.03;72.67;100878.78;146600;597;47010;-75
2022/04/22 04:05:51;;;;;;;;;19.50;17.75;;;;;14.01;72.51;100884.75;146605;609;46033;-76
2022/04/22 04:15:57;;;;;;;;;21.25;17.75;;;;;14.01;72.13;100869.09;146607;583;47010;-81
2022/04/22 04:18:15;;;;;;;;;18.75;17.25;;;;;13.83;74.56;100807.63;146602;592;47014;-77
2022/04/22 04:24:19;;;;;;;;;14.00;13.75;;;;;13.70;74.92;100791.41;146605;604;46015;-76
2022/04/22 04:27:11;;;;;;;;;19.00;16.25;;;;;13.65;75.03;100778.22;146607;577;47010;-78
2022/04/22 04:30:03;;;;;;;;;18.25;17.50;;;;;13.65;75.06;100772.13;146606;657;46017;-75
2022/04/22 04:32:55;;;;;;;;;20.50;19.00;;;;;13.64;73.91;100766.00;146607;593;46010;-75
2022/04/22 04:35:47;;;;;;;;;17.25;15.00;;;;;13.70;74.00;100766.25;146610;570;46013;-75
2022/04/22 04:38:39;;;;;;;;;13.25;12.50;;;;;13.78;74.22;100759.63;146609;563;46010;-75
2022/04/22 04:41:32;;;;;;;;;15.75;13.75;;;;;13.84;75.66;100759.88;146605;630;46012;-72
2022/04/22 04:44:24;;;;;;;;;15.00;13.25;;;;;13.86;76.22;100739.97;146608;579;46021;-73
2022/04/22 04:47:16;;;;;;;;;15.00;14.00;;;;;13.93;73.86;100741.09;146605;596;46016;-75
2022/04/22 04:50:09;;;;;;;;;12.00;11.50;;;;;12.97;73.60;100562.84;146614;579;46010;-81
2022/04/22 04:53:01;;;;;;;;;16.00;14.00;;;;;14.10;73.17;100754.75;146605;595;46016;-79
2022/04/22 04:55:53;;;;;;;;;18.75;15.25;;;;;14.17;72.45;100759.34;146610;572;46020;-78
2022/04/22 04:58:46;;;;;;;;;16.00;14.25;;;;;14.26;72.44;100751.87;146606;587;46016;-81
2022/04/22 05:01:37;;;;;;;;;16.75;16.75;;;;;14.34;72.51;100765.22;146607;577;46010;-80
2022/04/22 05:04:29;;;;;;;;;16.75;12.75;;;;;14.40;72.33;100791.50;146605;571;46012;-84
2022/04/22 05:07:22;;;;;;;;;19.25;17.00;;;;;14.49;71.88;100794.47;146609;630;46010;-82
2022/04/22 05:10:14;;;;;;;;;16.25;15.00;;;;;14.59;72.33;100800.06;146604;569;46016;-82
2022/04/22 05:13:08;;;;;;;;;16.00;14.25;;;;;14.74;72.37;100827.59;146608;571;47011;-82
2022/04/22 05:16:00;;;;;;;;;13.50;12.25;;;;;14.87;72.47;100830.63;146604;636;46917;-81
2022/04/22 05:18:52;;;;;;;;;17.50;16.25;;;;;15.02;71.57;100832.06;146610;610;46010;-82
2022/04/22 05:21:44;;;;;;;;;19.25;18.50;;;;;15.15;70.95;100845.53;146604;605;46017;-82
2022/04/22 05:24:37;;;;;;;;;18.25;18.25;;;;;15.25;71.59;100852.84;146607;563;46010;-80
2022/04/22 05:27:29;;;;;;;;;22.25;19.00;;;;;15.28;71.82;100859.91;146602;623;46016;-80
2022/04/22 05:33:33;;;;;;;;;26.00;24.50;;;;;15.21;71.01;100866.66;146603;630;46016;-73
2022/04/22 05:36:25;;;;;;;;;23.50;21.75;;;;;15.20;71.58;100872.69;146608;632;46010;-76
2022/04/22 05:39:17;;;;;;;;;21.25;20.25;;;;;15.19;71.13;100861.34;146606;611;46016;-78
2022/04/22 05:42:09;;;;;;;;;24.50;20.75;;;;;15.22;70.68;100845.78;146608;652;45021;-78
2022/04/22 05:45:02;;;;;;;;;19.50;18.50;;;;;15.28;70.92;100833.78;146602;593;46017;-78
2022/04/22 05:47:54;;;;;;;;;24.25;22.50;;;;;14.34;70.36;100645.22;146608;574;46010;-75
2022/04/22 05:50:46;;;;;;;;;24.25;22.00;;;;;15.38;70.90;100794.06;146605;591;45917;-87
2022/04/22 05:53:44;;;;;;;;;25.50;22.00;;;;;15.62;70.52;100805.31;146607;585;46020;-83
2022/04/22 05:56:37;;;;;;;;;25.25;20.75;;;;;15.75;69.93;100792.66;146607;625;45916;-85
2022/04/22 05:59:29;;;;;;;;;16.50;15.50;;;;;15.85;69.04;100763.34;146606;586;46021;-79
2022/04/22 06:02:21;;;;;;;;;18.50;16.00;;;;;15.90;68.63;100754.81;146608;564;46016;-80
2022/04/22 06:05:20;;;;;;;;;9.50;9.00;;;;;15.03;68.71;100624.03;146613;650;46010;-82
2022/04/22 06:11:23;;;;;;;;;15.00;14.00;;;;;15.93;69.47;100806.31;146610;742;46020;-80
2022/04/22 06:14:15;;;;;;;;;16.25;13.00;;;;;15.98;68.22;100815.19;146603;594;46016;-79
2022/04/22 06:17:08;;;;;;;;;12.25;11.00;;;;;16.03;69.01;100813.59;146609;629;46010;-78
2022/04/22 06:20:01;;;;;;;;;12.50;12.00;;;;;16.10;68.68;100802.47;146604;581;46017;-78
2022/04/22 06:22:54;;;;;;;;;14.25;12.25;;;;;16.14;68.17;100796.50;146608;603;46010;-76
2022/04/22 06:25:48;;;;;;;;;13.00;11.75;;;;;16.15;68.64;100785.19;146609;581;47012;-76
2022/04/22 06:28:40;;;;;;;;;17.00;15.00;;;;;16.11;69.69;100751.94;146604;589;47010;-75
2022/04/22 06:31:32;;;;;;;;;17.50;14.75;;;;;16.20;68.83;100785.34;146603;597;47012;-75
2022/04/22 06:34:24;;;;;;;;;11.25;11.25;;;;;16.22;70.84;100764.44;146607;612;47011;-77
2022/04/22 06:37:17;;;;;;;;;13.75;11.00;;;;;16.21;69.47;100754.81;146609;609;46016;-78
2022/04/22 06:46:32;;;;;;;;;15.00;12.00;;;;;16.11;70.22;100775.47;146608;576;46020;-77
2022/04/22 06:49:25;;;;;;;;;17.75;16.50;;;;;16.10;69.61;100775.41;146604;570;46016;-78
2022/04/22 06:52:18;;;;;;;;;11.50;10.75;;;;;16.15;70.32;100792.16;146607;587;46021;-78
2022/04/22 06:55:11;;;;;;;;;12.00;10.25;;;;;16.20;70.88;100784.44;146608;575;46016;-79
2022/04/22 06:58:05;;;;;;;;;9.25;9.00;;;;;16.25;69.09;100798.53;146610;615;46021;-80
2022/04/22 07:00:57;;;;;;;;;15.00;12.00;;;;;16.28;70.22;100796.00;146604;565;46035;-79
2022/04/22 07:03:49;;;;;;;;;14.50;13.00;;;;;16.38;68.77;100808.50;146609;621;46021;-74
2022/04/22 07:06:42;;;;;;;;;10.75;10.75;;;;;16.51;68.71;100813.28;146609;606;46917;-76
2022/04/22 07:09:34;;;;;;;;;15.75;12.75;;;;;16.76;69.61;100812.25;146606;600;47010;-77
2022/04/22 07:12:31;;;;;;;;;13.25;12.00;;;;;17.05;67.38;100815.66;146608;575;46917;-77
2022/04/22 07:15:23;;;;;;;;;13.75;11.00;;;;;16.53;66.78;100706.88;146607;637;46020;-77
2022/04/22 07:18:17;;;;;;;;;11.00;9.00;;;;;17.20;66.87;100809.06;146606;591;46016;-77
2022/04/22 07:21:09;;;;;;;;;9.00;9.00;;;;;17.22;67.03;100802.09;146616;637;46010;-78
2022/04/22 07:24:01;;;;;;;;;11.25;10.75;;;;;17.30;67.20;100804.06;146607;589;46016;-77
2022/04/22 07:26:56;;;;;;;;;15.50;12.50;;;;;17.54;67.06;100789.81;146608;684;46011;-76
2022/04/22 07:29:49;;;;;;;;;13.75;13.00;;;;;17.89;66.75;100798.53;146603;664;46016;-76
2022/04/22 07:32:48;;;;;;;;;15.25;13.50;;;;;18.25;65.33;100789.66;146607;564;47010;-82
2022/04/22 07:35:40;;;;;;;;;12.75;12.00;;;;;18.50;63.98;100780.53;146609;570;46016;-80
2022/04/22 07:38:32;;;;;;;;;16.75;14.75;;;;;18.62;63.26;100782.53;146611;566;45029;-76
2022/04/22 07:41:30;;;;;;;;;12.75;12.00;;;;;18.69;62.85;100787.03;146606;661;46917;-62
2022/04/22 07:47:33;;;;;;;;;13.00;11.25;;;;;18.72;63.54;100781.84;146606;581;46016;-73
2022/04/22 07:50:26;;;;;;;;;12.00;11.00;;;;;18.70;63.24;100779.19;146610;593;46021;-78
2022/04/22 07:53:19;;;;;;;;;12.75;11.75;;;;;18.59;63.95;100787.72;146608;625;46916;-79
2022/04/22 07:56:11;;;;;;;;;14.00;12.75;;;;;18.42;63.65;100796.16;146606;586;46020;-78
2022/04/22 07:59:03;;;;;;;;;16.00;12.50;;;;;18.26;64.16;100815.06;146602;602;46016;-78
2022/04/22 08:01:58;;;;;;;;;14.25;13.00;;;;;18.08;63.99;100806.81;146611;569;46020;-79
2022/04/22 08:04:50;;;;;;;;;15.00;12.75;;;;;17.96;64.35;100807.41;146611;672;46917;-78
2022/04/22 08:07:43;;;;;;;;;12.25;10.50;;;;;18.05;65.39;100785.75;146607;607;46020;-78
2022/04/22 08:10:35;;;;;;;;;11.50;11.50;;;;;18.13;64.37;100745.69;146606;607;46026;-77
2022/04/22 08:13:27;;;;;;;;;11.75;10.50;;;;;18.53;63.66;100771.84;146609;607;47010;-77
2022/04/22 08:16:19;;;;;;;;;12.25;9.50;;;;;18.68;63.08;100774.78;146604;587;46016;-77
2022/04/22 08:19:11;;;;;;;;;12.00;12.00;;;;;18.76;62.69;100756.59;146609;656;47010;-78
2022/04/22 08:22:04;;;;;;;;;13.50;12.00;;;;;18.77;63.12;100737.31;146606;563;46034;-75
2022/04/22 08:24:56;;;;;;;;;14.50;12.50;;;;;18.65;62.91;100693.31;146609;620;47010;-81
2022/04/22 08:27:49;;;;;;;;;13.00;13.00;;;;;18.62;63.35;100695.88;146605;564;47014;-82
2022/04/22 08:30:42;;;;;;;;;12.75;12.75;;;;;18.64;64.01;100718.69;146613;650;45020;-81
2022/04/22 08:33:34;;;;;;;;;13.75;13.00;;;;;18.75;63.82;100736.41;146605;567;47012;-79
2022/04/22 08:36:26;;;;;;;;;12.50;12.25;;;;;18.90;62.87;100727.03;146612;624;46010;-78
2022/04/22 08:39:19;;;;;;;;;12.75;11.75;;;;;19.03;62.31;100722.00;146604;653;47012;-81
2022/04/22 08:42:12;;;;;;;;;16.75;14.50;;;;;19.11;61.51;100725.66;146609;588;46021;-80
2022/04/22 08:45:05;;;;;;;;;49.25;36.75;;;;;19.08;61.50;100722.97;146605;591;46016;-80
2022/04/22 08:51:11;;;;;;;;;14.25;12.75;;;;;18.74;62.03;100658.47;146603;609;46016;-76
2022/04/22 08:54:03;;;;;;;;;14.25;14.00;;;;;19.14;61.45;100741.47;146610;611;46010;-77
2022/04/22 08:56:56;;;;;;;;;14.25;12.25;;;;;19.20;61.56;100735.44;146606;594;46917;-77
2022/04/22 08:59:48;;;;;;;;;15.75;13.25;;;;;19.22;61.00;100721.47;146610;573;46020;-72
2022/04/22 09:02:40;;;;;;;;;12.50;12.50;;;;;19.15;60.82;100704.69;146606;584;46917;-83
2022/04/22 09:05:34;;;;;;;;;10.75;10.00;;;;;19.16;61.38;100697.72;146609;621;46020;-75
2022/04/22 09:08:28;;;;;;;;;11.50;10.00;;;;;19.18;61.38;100698.59;146610;695;46012;-75
2022/04/22 09:11:20;;;;;;;;;14.00;14.00;;;;;19.22;61.32;100700.44;146609;581;46022;-75
2022/04/22 09:14:12;;;;;;;;;10.50;8.25;;;;;19.08;60.87;100704.56;146608;564;46012;-76
2022/04/22 09:17:04;;;;;;;;;11.75;10.00;;;;;18.89;61.61;100699.00;146608;563;47010;-76
2022/04/22 09:19:57;;;;;;;;;11.50;10.25;;;;;18.77;63.03;100692.66;146608;571;45917;-75
2022/04/22 09:22:49;;;;;;;;;12.50;12.00;;;;;18.66;63.28;100687.19;146606;647;46037;-75
2022/04/22 09:25:46;;;;;;;;;12.00;11.00;;;;;18.57;63.13;100697.56;146606;603;46035;-76
2022/04/22 09:28:38;;;;;;;;;12.75;12.25;;;;;18.56;62.95;100688.75;146610;567;46020;-75
2022/04/22 09:31:32;;;;;;;;;12.00;11.75;;;;;18.63;62.53;100695.03;146608;585;46012;-76
2022/04/22 09:34:42;;;;;;;;;15.00;12.50;;;;;18.73;62.21;100673.34;146613;724;46014;-76
2022/04/22 09:44:02;;;;;;;;;15.75;14.00;;;;;19.21;63.45;100700.41;146606;669;46016;-76
2022/04/22 09:47:14;;;;;;;;;12.50;11.50;;;;;19.47;61.23;100688.53;146614;580;46020;-76
2022/04/22 09:50:11;;;;;;;;;12.00;12.00;;;;;19.64;60.13;100673.00;146611;704;46012;-75
2022/04/22 09:53:08;;;;;;;;;12.00;12.00;;;;;19.77;61.36;100677.56;146604;564;46020;-75
2022/04/22 09:56:00;;;;;;;;;11.00;11.00;;;;;20.02;61.77;100680.50;146612;604;46012;-75
2022/04/22 09:58:52;;;;;;;;;15.00;13.00;;;;;20.34;60.77;100695.78;146609;633;46010;-76
2022/04/22 10:01:44;;;;;;;;;13.00;13.00;;;;;20.66;60.25;100696.16;146604;580;46015;-76
2022/04/22 10:04:38;;;;;;;;;12.25;11.25;;;;;20.89;57.90;100697.25;146606;589;46030;-76
2022/04/22 10:07:32;;;;;;;;;13.50;12.00;;;;;21.07;56.95;100688.63;146605;687;46016;-75
2022/04/22 10:10:29;;;;;;;;;14.25;12.75;;;;;20.29;57.02;100551.81;146607;660;46021;-85
2022/04/22 10:13:24;;;;;;;;;13.25;12.25;;;;;21.15;55.62;100673.75;146609;563;46012;-85
2022/04/22 10:16:17;;;;;;;;;11.75;9.75;;;;;21.27;56.57;100675.56;146609;615;46010;-83
2022/04/22 10:19:10;;;;;;;;;12.00;11.00;;;;;21.47;55.59;100656.41;146607;574;46016;-73
2022/04/22 10:22:18;;;;;;;;;10.25;9.50;;;;;20.80;55.70;100498.66;146610;569;46020;-74
2022/04/22 10:25:20;;;;;;;;;;;;;;;;;;;;;
2022/04/22 10:28:23;;;;;;;;;13.25;9.00;;;;;21.56;51.54;100622.16;146610;681;46020;-73
2022/04/22 10:31:42;;;;;;;;;13.00;9.25;;;;;20.53;49.95;100468.63;146608;570;46016;-74
2022/04/22 10:34:47;;;;;;;;;7.00;7.00;;;;;21.16;50.41;100606.94;146614;606;46020;-72
2022/04/22 10:37:41;;;;;;;;;8.33;6.67;;;;;21.00;51.09;100613.00;146614;655;46016;-74
2022/04/22 10:40:52;;;;;;;;;6.00;6.00;;;;;20.04;51.49;100455.06;146617;577;46010;-74
2022/04/22 10:43:45;;;;;;;;;8.67;8.00;;;;;19.86;50.93;100431.22;146610;577;46012;-75
2022/04/22 10:49:50;;;;;;;;;13.50;12.25;;;;;20.43;54.44;100591.41;146609;569;45915;-72
2022/04/22 10:53:18;;;;;;;;;15.75;15.75;;;;;20.43;54.97;100598.44;146604;577;47010;-74
2022/04/22 10:56:49;;;;;;;;;13.25;13.00;;;;;19.42;55.92;100405.34;146606;584;46016;-73
2022/04/22 10:59:41;;;;;;;;;12.00;10.25;;;;;20.44;56.08;100564.22;146611;581;46010;-74
2022/04/22 11:02:40;;;;;;;;;15.25;12.25;;;;;20.61;57.56;100559.13;146603;628;46014;-74
2022/04/22 11:05:42;;;;;;;;;12.50;11.25;;;;;20.62;56.06;100558.25;146611;637;46020;-73
2022/04/22 11:08:41;;;;;;;;;12.50;11.50;;;;;20.52;55.64;100541.47;146607;717;47012;-77
2022/04/22 11:11:43;;;;;;;;;11.25;11.25;;;;;20.49;56.45;100553.72;146609;564;47010;-77
2022/04/22 11:14:47;;;;;;;;;11.25;10.00;;;;;20.60;55.55;100561.75;146608;600;46016;-80
2022/04/22 11:17:44;;;;;;;;;12.25;9.25;;;;;20.73;54.63;100540.78;146612;717;46010;-76
2022/04/22 11:20:39;;;;;;;;;14.25;11.00;;;;;20.99;54.96;100553.22;146604;570;46016;-74
2022/04/22 11:23:45;;;;;;;;;11.25;10.00;;;;;21.26;55.50;100552.50;146607;700;46020;-75
2022/04/22 11:26:39;;;;;;;;;8.25;7.75;;;;;21.29;52.20;100544.59;146612;579;47012;-78
2022/04/22 11:29:32;;;;;;;;;9.75;9.75;;;;;21.25;53.67;100548.13;146606;625;47010;-77
2022/04/22 11:32:28;;;;;;;;;10.75;10.25;;;;;21.23;54.44;100542.81;146608;618;46016;-75
2022/04/22 11:35:24;;;;;;;;;9.75;9.00;;;;;21.27;54.67;100540.19;146614;638;47010;-76
2022/04/22 11:38:16;;;;;;;;;11.67;9.67;;;;;21.13;54.30;100540.12;146612;587;47014;-73
2022/04/22 11:41:15;;;;;;;;;8.50;8.50;;;;;20.91;54.25;100525.97;146619;670;45020;-76
2022/04/22 11:44:09;;;;;;;;;6.00;5.75;;;;;20.73;53.26;100535.50;146612;632;46012;-76
2022/04/22 11:47:05;;;;;;;;;13.50;12.25;;;;;20.79;54.74;100517.97;146606;588;46021;-76
2022/04/22 11:49:59;;;;;;;;;10.00;10.00;;;;;20.78;54.24;100514.47;146607;587;46012;-78
2022/04/22 11:52:59;;;;;;;;;10.00;9.00;;;;;20.83;55.10;100506.56;146608;581;46021;-76
2022/04/22 11:55:52;;;;;;;;;12.00;11.00;;;;;20.91;54.39;100499.59;146607;618;46916;-77
2022/04/22 11:58:44;;;;;;;;;12.75;12.25;;;;;21.10;55.42;100497.94;146610;687;46010;-76
2022/04/22 12:08:01;;;;;;;;;8.25;8.00;;;;;21.58;53.21;100496.38;146612;585;46028;-75
2022/04/22 12:10:54;;;;;;;;;8.50;8.00;;;;;21.61;53.74;100480.56;146610;687;46010;-76
2022/04/22 12:13:47;;;;;;;;;8.00;7.00;;;;;21.78;53.04;100472.69;146614;697;46034;-74
2022/04/22 12:16:41;;;;;;;;;9.50;9.00;;;;;21.92;52.85;100476.22;146610;598;47010;-76
2022/04/22 12:19:34;;;;;;;;;11.75;9.50;;;;;22.00;52.86;100469.19;146607;570;46012;-74
2022/04/22 12:22:27;;;;;;;;;9.00;9.00;;;;;21.97;52.84;100481.50;146611;638;46021;-77
2022/04/22 12:25:23;;;;;;;;;10.00;9.50;;;;;21.96;53.69;100469.16;146612;595;46036;-76
2022/04/22 12:28:16;;;;;;;;;8.00;7.75;;;;;21.94;52.50;100460.37;146611;566;46010;-73
2022/04/22 12:31:09;;;;;;;;;11.67;10.00;;;;;21.84;53.04;100457.75;146605;648;47016;-76
2022/04/22 12:34:11;;;;;;;;;7.00;7.00;;;;;21.66;53.76;100447.16;146615;573;46010;-75
2022/04/22 12:37:08;;;;;;;;;8.00;8.00;;;;;21.53;53.51;100432.19;146611;571;46013;-76
2022/04/22 12:40:12;;;;;;;;;6.75;6.75;;;;;21.51;54.77;100448.00;146615;616;47014;-76
2022/04/22 12:43:28;;;;;;;;;8.00;7.25;;;;;20.90;53.96;100318.59;146608;577;47012;-75
2022/04/22 12:53:34;;;;;;;;;8.00;6.00;;;;;21.60;53.51;100423.41;146615;569;46021;-77
2022/04/22 12:56:29;;;;;;;;;10.67;8.00;;;;;21.55;53.21;100414.59;146609;594;46916;-77
2022/04/22 12:59:22;;;;;;;;;7.75;5.50;;;;;21.49;49.78;100422.47;146615;675;46020;-76
2022/04/22 13:02:19;;;;;;;;;8.00;8.00;;;;;21.53;52.63;100427.78;146612;653;46016;-75
2022/04/22 13:05:19;;;;;;;;;6.67;5.67;;;;;21.56;53.96;100440.09;146616;624;47010;-78
2022/04/22 13:08:15;;;;;;;;;7.00;7.00;;;;;21.57;53.02;100441.84;146609;688;47012;-78
2022/04/22 13:11:08;;;;;;;;;6.00;6.00;;;;;21.57;51.27;100418.12;146615;693;46020;-77
2022/04/22 13:14:00;;;;;;;;;9.00;7.00;;;;;21.54;52.87;100400.50;146611;621;47015;-74
2022/04/22 13:16:52;;;;;;;;;8.00;7.33;;;;;21.48;52.07;100391.72;146615;616;46020;-75
2022/04/22 13:19:44;;;;;;;;;6.00;6.00;;;;;21.44;51.06;100397.00;146611;678;46016;-77
2022/04/22 13:22:36;;;;;;;;;4.67;4.67;;;;;21.48;52.11;100389.97;146613;569;46011;-76
2022/04/22 13:25:29;;;;;;;;;7.00;7.00;;;;;21.59;54.40;100417.25;146612;643;46916;-76
2022/04/22 13:28:21;;;;;;;;;8.25;6.25;;;;;21.65;52.58;100388.22;146616;568;46010;-77
2022/04/22 13:31:13;;;;;;;;;5.67;5.67;;;;;21.52;50.35;100370.59;146613;577;46917;-76
2022/04/22 13:34:05;;;;;;;;;4.00;4.00;;;;;21.28;49.73;100363.53;146614;597;46036;-77
2022/04/22 13:36:57;;;;;;;;;7.00;6.00;;;;;20.34;48.97;100204.25;146612;592;46035;-76
2022/04/22 13:39:49;;;;;;;;;6.33;4.33;;;;;21.09;51.30;100378.44;146615;592;46020;-79
2022/04/22 13:42:42;;;;;;;;;5.67;4.33;;;;;21.10;52.33;100363.50;146612;582;46016;-78
2022/04/22 13:55:04;;;;;;;;;9.33;7.00;;;;;21.33;51.71;100368.78;146610;570;47014;-78
2022/04/22 13:57:56;;;;;;;;;3.67;2.67;;;;;21.33;51.19;100351.22;146617;583;46018;-77
2022/04/22 14:00:49;;;;;;;;;6.00;6.00;;;;;21.39;51.05;100358.28;146613;619;46917;-80
2022/04/22 14:03:41;;;;;;;;;6.67;5.33;;;;;21.39;47.66;100343.34;146616;620;46020;-76
2022/04/22 14:06:33;;;;;;;;;3.33;3.33;;;;;21.17;47.59;100346.78;146611;593;47013;-77
2022/04/22 14:09:25;;;;;;;;;6.67;5.33;;;;;21.13;49.68;100335.37;146616;612;46020;-77
2022/04/22 14:12:17;;;;;;;;;5.67;5.00;;;;;21.06;48.84;100319.53;146613;570;46012;-79
2022/04/22 14:15:10;;;;;;;;;6.00;5.00;;;;;21.03;48.49;100323.06;146617;625;46010;-77
2022/04/22 14:18:03;;;;;;;;;5.00;5.00;;;;;20.96;48.94;100331.81;146612;598;46016;-77
2022/04/22 14:20:55;;;;;;;;;6.67;5.00;;;;;20.90;50.06;100358.13;146615;620;46021;-76
2022/04/22 14:23:47;;;;;;;;;6.33;5.00;;;;;20.83;51.94;100351.09;146612;618;46016;-76
2022/04/22 14:26:39;;;;;;;;;4.00;4.00;;;;;20.74;50.31;100358.09;146618;580;46010;-75
2022/04/22 14:29:32;;;;;;;;;8.50;7.50;;;;;20.83;54.19;100340.56;146614;588;46017;-75
2022/04/22 14:32:23;;;;;;;;;8.33;6.33;;;;;20.87;53.50;100315.97;146613;571;46020;-77
2022/04/22 14:35:15;;;;;;;;;7.33;6.00;;;;;20.81;52.67;100306.31;146612;569;46017;-74
2022/04/22 14:38:08;;;;;;;;;6.00;6.00;;;;;20.80;52.61;100314.19;146616;643;46010;-78
2022/04/22 14:41:00;;;;;;;;;4.75;4.50;;;;;20.77;51.09;100294.84;146614;580;46012;-77
2022/04/22 14:43:52;;;;;;;;;6.50;4.25;;;;;20.59;52.16;100293.91;146615;618;46010;-78